Time;durP1;ratioP1;P1;durP2;ratioP2;P2;SDS_P1;SDS_P2;PMS_P1;PMS_P2;Temp;Humidity;BMP_temperature;BMP_pressure;BME280_temperature;BME280_humidity;BME280_pressure;Samples;Min_cycle;Max_cycle;Signal;HPM_P1;HPM_P2
2022/11/10 00:00:19;;;;;;;25.30;3.92;;;10.70;99.90;;;;;;4969508;28;38476;-79
2022/11/10 00:02:46;;;;;;;24.73;4.13;;;10.70;99.90;;;;;;4950565;28;39514;-78
2022/11/10 00:05:14;;;;;;;33.05;4.25;;;10.70;99.90;;;;;;4961210;28;37906;-79
2022/11/10 00:07:40;;;;;;;21.00;3.40;;;10.70;99.90;;;;;;4946113;28;39256;-81
2022/11/10 00:10:07;;;;;;;25.03;4.30;;;10.70;99.90;;;;;;4942669;28;37568;-78
2022/11/10 00:12:33;;;;;;;25.83;4.13;;;10.70;99.90;;;;;;4945397;28;39640;-79
2022/11/10 00:17:44;;;;;;;33.10;5.20;;;10.80;99.90;;;;;;4965843;28;49681;-79
2022/11/10 00:20:11;;;;;;;25.77;4.72;;;10.80;99.90;;;;;;4951467;28;38226;-79
2022/11/10 00:22:38;;;;;;;25.63;4.17;;;10.80;99.90;;;;;;4953266;28;39795;-79
2022/11/10 00:25:05;;;;;;;30.23;4.70;;;10.80;99.90;;;;;;4951806;28;38140;-78
2022/11/10 00:27:32;;;;;;;25.85;4.20;;;10.80;99.90;;;;;;4972370;28;39333;-79
2022/11/10 00:29:59;;;;;;;28.13;3.93;;;10.80;99.90;;;;;;4973482;28;36831;-80
2022/11/10 00:32:25;;;;;;;21.40;3.67;;;10.70;99.90;;;;;;4961467;28;40439;-80
2022/11/10 00:34:51;;;;;;;17.48;3.47;;;10.70;99.90;;;;;;4966909;28;38528;-79
2022/11/10 00:37:17;;;;;;;33.60;5.15;;;10.80;99.90;;;;;;4971166;28;39134;-79
2022/11/10 00:39:43;;;;;;;33.23;4.83;;;10.80;99.90;;;;;;4974012;28;38352;-79
2022/11/10 00:42:10;;;;;;;23.07;3.87;;;10.70;99.90;;;;;;4950465;28;39305;-79
2022/11/10 00:44:36;;;;;;;39.37;4.33;;;10.70;99.90;;;;;;4974710;28;38480;-78
2022/11/10 00:47:02;;;;;;;20.57;3.53;;;10.60;99.90;;;;;;4953620;28;36958;-79
2022/11/10 00:49:28;;;;;;;23.47;3.67;;;10.60;99.90;;;;;;4955386;28;46584;-79
2022/11/10 00:51:56;;;;;;;27.70;4.37;;;10.50;99.90;;;;;;4948892;28;39741;-80
2022/11/10 00:54:23;;;;;;;26.40;3.57;;;10.60;99.90;;;;;;4956546;28;38531;-79
2022/11/10 00:56:49;;;;;;;27.30;4.13;;;10.60;99.90;;;;;;4969905;28;41439;-79
2022/11/10 00:59:15;;;;;;;29.70;4.50;;;10.60;99.90;;;;;;4967995;28;37074;-79
2022/11/10 01:01:41;;;;;;;25.40;4.53;;;10.60;99.90;;;;;;4970276;28;38211;-79
2022/11/10 01:04:07;;;;;;;29.20;3.93;;;10.60;99.90;;;;;;4944246;28;38964;-79
2022/11/10 01:06:33;;;;;;;28.23;4.90;;;10.60;99.90;;;;;;4974559;28;37829;-78
2022/11/10 01:09:01;;;;;;;25.43;4.80;;;10.60;99.90;;;;;;4975947;28;20103;-78
2022/11/10 01:11:27;;;;;;;26.60;3.80;;;10.50;99.90;;;;;;4950427;28;39283;-79
2022/11/10 01:13:55;;;;;;;22.87;4.30;;;10.60;99.90;;;;;;4962701;28;38274;-79
2022/11/10 01:16:29;;;;;;;28.40;5.00;;;10.60;99.90;;;;;;4947475;28;38019;-79
2022/11/10 01:18:58;;;;;;;23.97;4.27;;;10.50;99.90;;;;;;4958007;28;37810;-79
2022/11/10 01:21:25;;;;;;;31.88;4.93;;;10.60;99.90;;;;;;4964145;28;39903;-78
2022/11/10 01:23:52;;;;;;;23.10;3.93;;;10.50;99.90;;;;;;4955467;28;40218;-79
2022/11/10 01:26:18;;;;;;;27.77;4.20;;;10.50;99.90;;;;;;4981683;28;37945;-78
2022/11/10 01:28:45;;;;;;;38.37;4.90;;;10.50;99.90;;;;;;4954444;28;38076;-78
2022/11/10 01:31:16;;;;;;;29.47;5.30;;;10.40;99.90;;;;;;4941849;28;39081;-79
2022/11/10 01:33:43;;;;;;;25.87;4.13;;;10.50;99.90;;;;;;4960772;28;38548;-79
2022/11/10 01:36:10;;;;;;;33.03;4.63;;;10.50;99.90;;;;;;4961483;28;36405;-78
2022/11/10 01:38:38;;;;;;;24.60;4.55;;;10.60;99.90;;;;;;4942281;28;38717;-78
2022/11/10 01:41:06;;;;;;;22.20;3.60;;;10.50;99.90;;;;;;4946102;28;39790;-79
2022/11/10 01:43:33;;;;;;;31.70;4.13;;;10.50;99.90;;;;;;4947086;28;46843;-79
2022/11/10 01:46:01;;;;;;;22.93;4.43;;;10.50;99.90;;;;;;4946199;28;39653;-78
2022/11/10 01:48:45;;;;;;;28.33;4.80;;;10.40;99.90;;;;;;4956968;28;37243;-79
2022/11/10 01:51:19;;;;;;;19.73;3.13;;;10.40;99.90;;;;;;4972602;28;40606;-78
2022/11/10 01:53:52;;;;;;;22.17;4.07;;;10.40;99.90;;;;;;4953308;28;39985;-79
2022/11/10 01:56:19;;;;;;;29.40;3.67;;;10.40;99.90;;;;;;4940705;28;37776;-77
2022/11/10 01:58:57;;;;;;;27.80;4.80;;;10.40;99.90;;;;;;4942480;28;38446;-79
2022/11/10 02:04:03;;;;;;;30.37;4.23;;;10.40;99.90;;;;;;4057551;23;20628;-79
2022/11/10 02:06:34;;;;;;;20.23;3.13;;;10.40;99.90;;;;;;4994834;28;48880;-79
2022/11/10 02:09:00;;;;;;;25.63;3.90;;;10.40;99.90;;;;;;4996187;28;38329;-79
2022/11/10 02:11:28;;;;;;;25.63;4.97;;;10.30;99.90;;;;;;4980943;28;35616;-80
2022/11/10 02:13:55;;;;;;;28.20;3.63;;;10.30;99.90;;;;;;4983826;28;39109;-80
2022/11/10 02:16:22;;;;;;;20.17;3.10;;;10.30;99.90;;;;;;4996482;28;37903;-79
2022/11/10 02:18:48;;;;;;;22.73;3.33;;;10.30;99.90;;;;;;4985395;28;36928;-79
2022/11/10 02:21:19;;;;;;;25.97;3.40;;;10.20;99.90;;;;;;4999633;28;38675;-79
2022/11/10 02:23:54;;;;;;;22.40;3.53;;;10.30;99.90;;;;;;4996588;28;38354;-80
2022/11/10 02:26:26;;;;;;;25.67;3.87;;;10.40;99.90;;;;;;5000572;28;38258;-80
2022/11/10 02:28:52;;;;;;;29.60;3.85;;;10.30;99.90;;;;;;5002735;28;37757;-80
2022/11/10 02:31:18;;;;;;;31.37;4.70;;;10.30;99.90;;;;;;4981998;28;39273;-80
2022/11/10 02:33:44;;;;;;;23.23;2.63;;;10.30;99.90;;;;;;4983639;28;36949;-80
2022/11/10 02:36:16;;;;;;;22.10;3.53;;;10.20;99.90;;;;;;4977689;28;37065;-79
2022/11/10 02:38:42;;;;;;;35.33;4.00;;;10.20;99.90;;;;;;4998616;28;37882;-79
2022/11/10 02:41:09;;;;;;;21.77;3.40;;;10.10;99.90;;;;;;4980756;28;37421;-79
2022/11/10 02:43:36;;;;;;;26.37;4.67;;;10.10;99.90;;;;;;4985071;28;36968;-80
2022/11/10 02:46:02;;;;;;;26.17;3.50;;;10.10;99.90;;;;;;4985914;28;37047;-79
2022/11/10 02:48:29;;;;;;;28.13;3.83;;;10.00;99.90;;;;;;4982598;28;35854;-78
2022/11/10 02:50:55;;;;;;;25.27;3.47;;;10.00;99.90;;;;;;4998449;28;39762;-80
2022/11/10 02:53:21;;;;;;;17.60;3.83;;;9.90;99.90;;;;;;4981998;28;36904;-80
2022/11/10 02:55:47;;;;;;;26.73;4.03;;;9.90;99.90;;;;;;4985336;28;38569;-80
2022/11/10 02:58:14;;;;;;;23.97;3.83;;;9.90;99.90;;;;;;4979701;28;36098;-80
2022/11/10 03:00:40;;;;;;;17.43;3.50;;;9.90;99.90;;;;;;5002064;28;39074;-79
2022/11/10 03:03:06;;;;;;;24.37;3.93;;;9.80;99.90;;;;;;4979473;28;37451;-79
2022/11/10 03:05:32;;;;;;;29.43;3.90;;;9.80;99.90;;;;;;4981763;28;38583;-79
2022/11/10 03:08:01;;;;;;;26.63;4.00;;;9.70;99.90;;;;;;4980410;28;36200;-80
2022/11/10 03:10:28;;;;;;;27.80;4.70;;;9.70;99.90;;;;;;4971861;28;37404;-79
2022/11/10 03:12:59;;;;;;;27.10;4.00;;;9.70;99.90;;;;;;4975965;28;37428;-80
2022/11/10 03:15:26;;;;;;;22.67;3.73;;;9.70;99.90;;;;;;4990963;28;37827;-79
2022/11/10 03:17:52;;;;;;;26.60;4.17;;;9.70;99.90;;;;;;4980416;28;35727;-79
2022/11/10 03:20:18;;;;;;;35.33;5.13;;;9.70;99.90;;;;;;4979542;28;37676;-80
2022/11/10 03:22:45;;;;;;;24.03;4.40;;;9.80;99.90;;;;;;4986396;28;38891;-80
2022/11/10 03:25:12;;;;;;;29.00;5.23;;;9.70;99.90;;;;;;4981513;28;37133;-79
2022/11/10 03:27:39;;;;;;;28.67;4.97;;;9.80;99.90;;;;;;4988699;28;37004;-80
2022/11/10 03:30:06;;;;;;;26.50;4.70;;;9.80;99.90;;;;;;4996865;28;37976;-79
2022/11/10 03:32:32;;;;;;;28.37;4.27;;;9.70;99.90;;;;;;5001386;28;38176;-80
2022/11/10 03:34:58;;;;;;;26.37;4.37;;;9.70;99.90;;;;;;4995311;28;38237;-79
2022/11/10 03:37:25;;;;;;;35.50;5.40;;;9.80;99.90;;;;;;5005594;28;37739;-79
2022/11/10 03:39:51;;;;;;;29.20;5.10;;;9.70;99.90;;;;;;4997533;28;37848;-80
2022/11/10 03:42:17;;;;;;;29.23;5.47;;;9.70;99.90;;;;;;5000531;28;38013;-80
2022/11/10 03:44:43;;;;;;;23.37;4.73;;;9.70;99.90;;;;;;4998604;28;38508;-80
2022/11/10 03:47:10;;;;;;;24.73;5.57;;;9.80;99.90;;;;;;5004443;28;38144;-79
2022/11/10 03:49:36;;;;;;;32.47;5.07;;;9.80;99.90;;;;;;5003516;28;39424;-80
2022/11/10 03:52:02;;;;;;;33.33;6.77;;;9.70;99.90;;;;;;4998012;28;37785;-79
2022/11/10 03:54:28;;;;;;;30.50;7.03;;;9.70;99.90;;;;;;4999167;28;38131;-80
2022/11/10 03:56:59;;;;;;;33.17;7.87;;;9.70;99.90;;;;;;5001828;28;35561;-80
2022/11/10 03:59:25;;;;;;;28.13;5.37;;;9.70;99.90;;;;;;5228973;23;38904;-80
2022/11/10 04:01:52;;;;;;;27.93;5.43;;;9.70;99.90;;;;;;4965322;28;37613;-80
2022/11/10 04:09:48;;;;;;;30.37;4.50;;;9.70;99.90;;;;;;4978704;28;40030;-80
2022/11/10 04:17:49;;;;;;;23.67;5.07;;;9.70;99.90;;;;;;4969895;28;48827;-80
2022/11/10 04:20:16;;;;;;;28.25;4.53;;;9.70;99.90;;;;;;4973718;28;36775;-79
2022/11/10 04:25:27;;;;;;;34.03;5.10;;;9.60;99.90;;;;;;4979045;28;48093;-80
2022/11/10 04:27:56;;;;;;;25.33;4.10;;;9.80;99.90;;;;;;4980167;28;37470;-79
2022/11/10 04:30:22;;;;;;;28.13;4.47;;;9.70;99.90;;;;;;4965779;28;38962;-79
2022/11/10 04:32:53;;;;;;;29.97;4.80;;;9.70;99.90;;;;;;4984577;28;38510;-80
2022/11/10 04:35:19;;;;;;;25.10;4.80;;;9.70;99.90;;;;;;4959052;28;36601;-80
2022/11/10 04:37:46;;;;;;;20.73;5.13;;;9.80;99.90;;;;;;4952881;28;35562;-79
2022/11/10 04:40:12;;;;;;;27.37;5.53;;;9.70;99.90;;;;;;4975444;28;40011;-79
2022/11/10 04:42:39;;;;;;;32.83;5.03;;;9.70;99.90;;;;;;5009430;28;37838;-79
2022/11/10 04:45:06;;;;;;;21.20;4.63;;;9.70;99.90;;;;;;5001359;28;39733;-79
2022/11/10 04:47:32;;;;;;;28.33;5.30;;;9.80;99.90;;;;;;4979474;28;36707;-79
2022/11/10 04:49:58;;;;;;;25.17;5.23;;;9.80;99.90;;;;;;4976540;28;38612;-79
2022/11/10 04:52:24;;;;;;;27.67;5.77;;;9.70;99.90;;;;;;4978630;28;39834;-80
2022/11/10 04:54:50;;;;;;;33.60;5.83;;;9.70;99.90;;;;;;4975391;28;36774;-80
2022/11/10 04:57:16;;;;;;;24.20;5.00;;;9.80;99.90;;;;;;4972340;28;37577;-79
2022/11/10 04:59:42;;;;;;;27.80;5.17;;;9.80;99.90;;;;;;5001986;28;37565;-80
2022/11/10 05:02:09;;;;;;;22.27;6.63;;;9.80;99.90;;;;;;4973386;28;36737;-80
2022/11/10 05:04:38;;;;;;;31.97;5.63;;;9.80;99.90;;;;;;5009589;28;37357;-79
2022/11/10 05:07:04;;;;;;;27.77;5.27;;;9.90;99.90;;;;;;4995457;28;38347;-79
2022/11/10 05:09:30;;;;;;;35.87;6.37;;;9.90;99.90;;;;;;4969791;28;40746;-79
2022/11/10 05:11:56;;;;;;;29.63;4.97;;;9.90;99.90;;;;;;4974796;28;38865;-80
2022/11/10 05:14:22;;;;;;;27.37;6.13;;;9.90;99.90;;;;;;4978999;28;36847;-80
2022/11/10 05:16:48;;;;;;;38.80;6.97;;;9.80;99.90;;;;;;4980585;28;35834;-80
2022/11/10 05:19:14;;;;;;;24.13;4.63;;;9.80;99.90;;;;;;4976705;28;38074;-79
2022/11/10 05:21:40;;;;;;;29.23;5.87;;;9.70;99.90;;;;;;4978345;28;38680;-80
2022/11/10 05:24:07;;;;;;;23.80;4.50;;;9.70;99.90;;;;;;4972012;28;38649;-79
2022/11/10 05:26:33;;;;;;;31.80;5.43;;;9.70;99.90;;;;;;4990637;28;38293;-80
2022/11/10 05:28:59;;;;;;;31.43;5.53;;;9.70;99.90;;;;;;4966545;28;37323;-80
2022/11/10 05:31:25;;;;;;;31.77;5.10;;;9.70;99.90;;;;;;4975541;28;38463;-79
2022/11/10 05:33:51;;;;;;;19.43;5.37;;;9.70;99.90;;;;;;4977826;28;38286;-81
2022/11/10 05:36:17;;;;;;;26.40;5.10;;;9.70;99.90;;;;;;5008312;28;37302;-79
2022/11/10 05:38:50;;;;;;;27.63;5.40;;;9.70;99.90;;;;;;5007548;28;37694;-80
2022/11/10 05:41:16;;;;;;;24.23;5.47;;;9.80;99.90;;;;;;4976833;28;39389;-80
2022/11/10 05:43:45;;;;;;;26.43;5.50;;;9.70;99.90;;;;;;4976618;28;36575;-81
2022/11/10 05:46:12;;;;;;;31.90;6.10;;;9.70;99.90;;;;;;4989529;28;36245;-82
2022/11/10 05:48:38;;;;;;;30.50;6.37;;;9.70;99.90;;;;;;4952802;28;37876;-80
2022/11/10 05:51:04;;;;;;;32.37;5.83;;;9.70;99.90;;;;;;4968431;28;38536;-80
2022/11/10 05:53:31;;;;;;;37.53;6.40;;;9.70;99.90;;;;;;4958749;28;39476;-80
2022/11/10 05:55:57;;;;;;;26.73;5.90;;;9.70;99.90;;;;;;4961117;28;37210;-79
2022/11/10 05:58:23;;;;;;;28.13;5.57;;;9.70;99.90;;;;;;4972638;28;39286;-79
2022/11/10 06:00:49;;;;;;;30.57;5.80;;;9.70;99.90;;;;;;4967130;28;38451;-79
2022/11/10 06:03:21;;;;;;;34.93;6.47;;;9.70;99.90;;;;;;4975463;28;36777;-80
2022/11/10 06:05:48;;;;;;;28.67;5.75;;;9.70;99.90;;;;;;4979039;28;37470;-80
2022/11/10 06:08:16;;;;;;;24.20;5.47;;;9.70;99.90;;;;;;4987673;28;39544;-79
2022/11/10 06:10:42;;;;;;;33.53;6.17;;;9.60;99.90;;;;;;4991892;28;40998;-80
2022/11/10 06:13:13;;;;;;;31.40;7.60;;;9.70;99.90;;;;;;4982578;28;39687;-79
2022/11/10 06:15:39;;;;;;;27.53;6.20;;;9.70;99.90;;;;;;4995564;28;36694;-80
2022/11/10 06:18:06;;;;;;;26.87;5.90;;;9.70;99.90;;;;;;4973562;28;38665;-78
2022/11/10 06:20:32;;;;;;;29.30;5.83;;;9.60;99.90;;;;;;4956009;28;39243;-79
2022/11/10 06:23:08;;;;;;;31.13;6.57;;;9.60;99.90;;;;;;4957559;28;39284;-78
2022/11/10 06:25:36;;;;;;;33.30;6.70;;;9.60;99.90;;;;;;4972713;28;49079;-78
2022/11/10 06:28:03;;;;;;;16.83;5.07;;;9.60;99.90;;;;;;4972791;28;39068;-78
2022/11/10 06:30:32;;;;;;;29.73;5.70;;;9.50;99.90;;;;;;4973695;28;38704;-78
2022/11/10 06:32:58;;;;;;;20.30;5.63;;;9.50;99.90;;;;;;4963885;28;37166;-78
2022/11/10 06:35:25;;;;;;;27.77;5.73;;;9.50;99.90;;;;;;4953167;28;37581;-78
2022/11/10 06:38:06;;;;;;;30.37;6.50;;;9.50;99.90;;;;;;4954465;28;39688;-78
2022/11/10 06:40:33;;;;;;;20.03;5.20;;;9.60;99.90;;;;;;4983492;28;48699;-78
2022/11/10 06:43:00;;;;;;;28.97;6.47;;;9.50;99.90;;;;;;5007201;28;36740;-78
2022/11/10 06:45:29;;;;;;;27.47;6.13;;;9.50;99.90;;;;;;4973366;28;37499;-78
2022/11/10 06:48:25;;;;;;;26.90;5.60;;;9.50;99.90;;;;;;5009501;28;39684;-78
2022/11/10 06:50:51;;;;;;;28.60;5.27;;;9.50;99.90;;;;;;4965362;28;48756;-78
2022/11/10 06:53:17;;;;;;;26.50;5.13;;;9.60;99.90;;;;;;4974175;28;36292;-78
2022/11/10 06:55:44;;;;;;;22.80;5.07;;;9.60;99.90;;;;;;4956525;28;38565;-79
2022/11/10 06:58:10;;;;;;;27.90;4.83;;;9.50;99.90;;;;;;5006749;28;40141;-78
2022/11/10 07:00:36;;;;;;;32.80;6.03;;;9.50;99.90;;;;;;5009207;28;37121;-79
2022/11/10 07:03:09;;;;;;;18.90;4.20;;;9.60;99.90;;;;;;4977299;28;36248;-79
2022/11/10 07:05:35;;;;;;;;;;;9.60;99.90;;;;;;4965990;28;47415;-78
2022/11/10 07:08:14;;;;;;;21.47;4.13;;;9.60;99.90;;;;;;4971882;28;39420;-79
2022/11/10 07:10:53;;;;;;;26.60;5.50;;;9.60;99.90;;;;;;4977273;28;47821;-79
2022/11/10 07:13:20;;;;;;;25.53;5.10;;;9.60;99.90;;;;;;4957676;28;36913;-78
2022/11/10 07:15:50;;;;;;;42.77;7.37;;;9.70;99.90;;;;;;4996204;28;37321;-79
2022/11/10 07:18:16;;;;;;;32.80;4.87;;;9.80;99.90;;;;;;4979078;28;38591;-80
2022/11/10 07:20:42;;;;;;;26.20;6.03;;;9.90;99.90;;;;;;4973937;28;37995;-78
2022/11/10 07:23:11;;;;;;;35.83;6.57;;;9.90;99.90;;;;;;4974893;28;38072;-79
2022/11/10 07:25:38;;;;;;;41.00;6.50;;;9.90;99.90;;;;;;4978520;28;35975;-79
2022/11/10 07:28:07;;;;;;;23.63;4.93;;;10.00;99.90;;;;;;4972106;28;37945;-78
2022/11/10 07:30:34;;;;;;;21.87;4.63;;;9.90;99.90;;;;;;4987058;28;37246;-78
2022/11/10 07:33:02;;;;;;;25.53;4.73;;;10.00;99.90;;;;;;4960746;28;37945;-79
2022/11/10 07:35:29;;;;;;;27.33;5.10;;;10.00;99.90;;;;;;4974328;28;48955;-78
2022/11/10 07:37:57;;;;;;;28.73;5.03;;;10.00;99.90;;;;;;4991668;28;37831;-78
2022/11/10 07:40:23;;;;;;;30.77;4.73;;;10.00;99.90;;;;;;4995247;28;39145;-79
2022/11/10 07:42:50;;;;;;;20.87;4.17;;;10.10;99.90;;;;;;4990823;28;36955;-79
2022/11/10 07:45:16;;;;;;;28.37;5.30;;;10.10;99.90;;;;;;4968672;28;37943;-79
2022/11/10 07:47:42;;;;;;;27.60;4.85;;;10.10;99.90;;;;;;5009348;28;40559;-79
2022/11/10 07:50:09;;;;;;;30.77;5.60;;;10.20;99.90;;;;;;4974491;28;38470;-79
2022/11/10 07:52:36;;;;;;;23.93;4.00;;;10.20;99.90;;;;;;4980231;28;38391;-80
2022/11/10 07:55:04;;;;;;;17.87;3.83;;;10.30;99.90;;;;;;4983653;28;37484;-80
2022/11/10 07:57:30;;;;;;;32.43;4.77;;;10.30;99.90;;;;;;4970210;28;47744;-80
2022/11/10 07:59:56;;;;;;;29.03;4.97;;;10.40;99.90;;;;;;4959548;28;38743;-79
2022/11/10 08:02:22;;;;;;;20.40;5.47;;;10.50;99.90;;;;;;4950989;28;38590;-80
2022/11/10 08:04:49;;;;;;;26.83;4.40;;;10.50;99.90;;;;;;4955008;28;37215;-78
2022/11/10 08:07:15;;;;;;;26.77;4.67;;;10.60;99.90;;;;;;4979489;28;38677;-79
2022/11/10 08:09:41;;;;;;;26.60;5.60;;;10.70;99.90;;;;;;4980632;28;38139;-80
2022/11/10 08:12:07;;;;;;;19.40;4.47;;;10.80;99.90;;;;;;5013723;28;37733;-79
2022/11/10 08:14:33;;;;;;;27.48;5.82;;;10.80;99.90;;;;;;4980787;28;38923;-79
2022/11/10 08:17:00;;;;;;;22.60;4.47;;;10.90;99.90;;;;;;4986803;28;37357;-80
2022/11/10 08:19:26;;;;;;;28.17;4.37;;;11.00;99.90;;;;;;4984000;28;41075;-80
2022/11/10 08:21:52;;;;;;;23.60;4.50;;;11.10;99.90;;;;;;4983123;28;38935;-78
2022/11/10 08:24:18;;;;;;;25.90;4.53;;;11.20;99.90;;;;;;4978639;28;37099;-79
2022/11/10 08:26:44;;;;;;;22.02;4.85;;;11.20;99.90;;;;;;4971893;28;40996;-80
2022/11/10 08:29:10;;;;;;;24.73;4.57;;;11.30;99.90;;;;;;4976839;28;37163;-79
2022/11/10 08:31:37;;;;;;;26.35;4.25;;;11.40;99.90;;;;;;4971963;28;38725;-80
2022/11/10 08:34:04;;;;;;;21.52;4.35;;;11.50;99.90;;;;;;4961522;28;36327;-79
2022/11/10 08:36:30;;;;;;;24.67;3.88;;;11.50;99.90;;;;;;4990286;28;37542;-80
2022/11/10 08:38:56;;;;;;;22.13;4.22;;;11.50;99.90;;;;;;4969392;28;36260;-79
2022/11/10 08:41:22;;;;;;;25.00;5.05;;;11.50;99.90;;;;;;4987118;28;38356;-80
2022/11/10 08:43:48;;;;;;;24.90;4.57;;;11.50;99.90;;;;;;4986065;28;37596;-79
2022/11/10 08:46:15;;;;;;;27.92;4.43;;;11.60;99.90;;;;;;4974082;28;37912;-79
2022/11/10 08:48:41;;;;;;;21.67;4.97;;;11.60;99.90;;;;;;4967952;28;38837;-79
2022/11/10 08:51:08;;;;;;;20.15;3.92;;;11.60;99.90;;;;;;4985058;28;36277;-79
2022/11/10 08:53:34;;;;;;;23.77;4.75;;;11.70;99.90;;;;;;4968074;28;36612;-79
2022/11/10 08:56:00;;;;;;;21.17;4.90;;;11.70;99.90;;;;;;4998979;28;39399;-80
2022/11/10 08:58:26;;;;;;;24.77;5.40;;;11.80;99.90;;;;;;5015938;28;37575;-79
2022/11/10 09:00:53;;;;;;;26.85;4.68;;;11.80;99.90;;;;;;4989553;28;38113;-79
2022/11/10 09:03:24;;;;;;;19.60;4.47;;;11.80;99.90;;;;;;4983334;28;37499;-80
2022/11/10 09:05:53;;;;;;;34.72;5.45;;;11.90;99.90;;;;;;4983907;28;40449;-79
2022/11/10 09:08:19;;;;;;;23.70;4.95;;;11.90;99.90;;;;;;4983891;28;38920;-79
2022/11/10 09:10:50;;;;;;;31.27;5.47;;;12.00;99.90;;;;;;5015689;28;37311;-81
2022/11/10 09:13:17;;;;;;;29.83;4.93;;;12.00;99.90;;;;;;4985397;28;36934;-79
2022/11/10 09:15:44;;;;;;;22.75;4.15;;;12.10;99.90;;;;;;5014138;28;39120;-80
2022/11/10 09:18:12;;;;;;;23.75;5.35;;;12.10;99.90;;;;;;4982764;28;38446;-80
2022/11/10 09:20:44;;;;;;;20.95;5.55;;;12.10;99.90;;;;;;4987183;28;37038;-79
2022/11/10 09:23:14;;;;;;;22.00;4.47;;;12.20;99.90;;;;;;4991062;28;37521;-80
2022/11/10 09:25:41;;;;;;;26.00;4.82;;;12.20;99.90;;;;;;4991949;28;37613;-80
2022/11/10 09:28:14;;;;;;;24.15;4.50;;;12.30;99.90;;;;;;5011815;28;38354;-80
2022/11/10 09:30:40;;;;;;;;;;;12.30;99.90;;;;;;5020421;28;38046;-79
2022/11/10 09:33:07;;;;;;;32.70;5.50;;;12.30;99.90;;;;;;4964234;28;36014;-81
2022/11/10 09:35:33;;;;;;;21.08;4.88;;;12.40;99.90;;;;;;4964138;28;38870;-79
2022/11/10 09:38:00;;;;;;;26.40;4.57;;;12.40;99.90;;;;;;4984758;28;39426;-79
2022/11/10 09:40:53;;;;;;;29.95;6.68;;;12.50;99.90;;;;;;4989912;28;39743;-80
2022/11/10 09:43:32;;;;;;;25.17;4.88;;;12.50;99.90;;;;;;5019660;28;36155;-79
2022/11/10 09:46:03;;;;;;;20.38;4.88;;;12.60;99.90;;;;;;4984642;28;37659;-79
2022/11/10 09:48:37;;;;;;;20.42;4.55;;;12.60;99.90;;;;;;4974974;28;39632;-81
2022/11/10 09:51:23;;;;;;;24.42;5.22;;;12.80;99.90;;;;;;4982796;28;40208;-82
2022/11/10 09:53:59;;;;;;;25.10;5.28;;;12.90;99.90;;;;;;4964114;28;50345;-79
2022/11/10 09:56:32;;;;;;;25.60;4.05;;;13.00;99.90;;;;;;5003679;28;39275;-81
2022/11/10 09:59:02;;;;;;;20.08;5.05;;;13.20;99.90;;;;;;4987202;28;40302;-84
2022/11/10 10:01:50;;;;;;;22.70;4.22;;;13.30;99.90;;;;;;4981687;28;38839;-80
2022/11/10 10:04:45;;;;;;;20.88;4.38;;;13.50;99.90;;;;;;4985791;28;35999;-82
2022/11/10 10:07:37;;;;;;;24.55;4.30;;;13.70;99.90;;;;;;4973401;28;39236;-81
2022/11/10 10:10:39;;;;;;;26.17;4.72;;;13.80;99.90;;;;;;4971623;28;39926;-81
2022/11/10 10:13:43;;;;;;;19.30;3.60;;;13.90;99.90;;;;;;4968910;28;49768;-80
2022/11/10 10:16:24;;;;;;;23.02;4.50;;;14.00;99.90;;;;;;4960183;28;37729;-80
2022/11/10 10:19:12;;;;;;;22.73;3.80;;;14.10;99.90;;;;;;4961580;28;37743;-81
2022/11/10 10:22:03;;;;;;;21.60;3.70;;;14.10;99.90;;;;;;5002671;28;47156;-81
2022/11/10 10:24:31;;;;;;;19.25;3.67;;;14.00;99.90;;;;;;4959733;28;48825;-81
2022/11/10 10:27:03;;;;;;;21.88;3.67;;;14.00;99.90;;;;;;4973436;28;37782;-80
2022/11/10 10:29:36;;;;;;;25.73;3.83;;;14.00;99.90;;;;;;4981451;28;48397;-78
2022/11/10 10:32:03;;;;;;;23.33;2.92;;;14.00;99.90;;;;;;4995215;28;39304;-81
2022/11/10 10:34:30;;;;;;;20.42;4.00;;;13.90;99.90;;;;;;4979780;28;38259;-81
2022/11/10 10:36:59;;;;;;;15.32;4.00;;;13.90;99.90;;;;;;4996192;28;35444;-81
2022/11/10 10:39:33;;;;;;;16.15;3.70;;;14.00;99.90;;;;;;4983904;28;38910;-81
2022/11/10 10:41:59;;;;;;;24.20;3.67;;;14.00;99.90;;;;;;4977903;28;38067;-80
2022/11/10 10:44:25;;;;;;;22.20;3.67;;;14.20;99.90;;;;;;4981202;28;39136;-81
2022/11/10 10:46:58;;;;;;;22.10;4.75;;;14.30;99.90;;;;;;4981702;28;37245;-81
2022/11/10 10:49:29;;;;;;;18.17;3.33;;;14.30;99.90;;;;;;4992013;28;38657;-81
2022/11/10 10:52:05;;;;;;;17.73;3.90;;;14.20;99.90;;;;;;4978854;28;38901;-81
2022/11/10 10:54:34;;;;;;;14.10;4.07;;;14.20;99.90;;;;;;4977585;28;48916;-81
2022/11/10 10:57:27;;;;;;;14.75;3.10;;;14.20;99.90;;;;;;4964561;28;37658;-81
2022/11/10 11:00:17;;;;;;;17.20;3.60;;;14.30;99.90;;;;;;4999174;28;48118;-81
2022/11/10 11:03:10;;;;;;;14.55;3.50;;;14.30;99.90;;;;;;4968812;28;47158;-81
2022/11/10 11:05:36;;;;;;;10.35;3.47;;;14.20;99.90;;;;;;4968094;28;49011;-81
2022/11/10 11:08:03;;;;;;;17.58;3.97;;;14.20;99.90;;;;;;4953341;28;38613;-81
2022/11/10 11:10:34;;;;;;;17.00;3.80;;;14.20;99.90;;;;;;4948954;28;38948;-81
2022/11/10 11:13:25;;;;;;;15.43;3.08;;;14.20;99.90;;;;;;4968563;28;37279;-81
2022/11/10 11:15:59;;;;;;;18.02;3.45;;;14.20;99.90;;;;;;4974085;28;48809;-81
2022/11/10 11:18:31;;;;;;;18.83;4.90;;;14.20;99.90;;;;;;4961045;28;36067;-81
2022/11/10 11:21:01;;;;;;;17.20;4.03;;;14.20;99.90;;;;;;4967708;28;38188;-82
2022/11/10 11:23:33;;;;;;;16.38;3.25;;;14.30;99.90;;;;;;4958246;28;37249;-81
2022/11/10 11:26:11;;;;;;;19.02;3.92;;;14.30;99.90;;;;;;4949170;28;38571;-81
2022/11/10 11:28:49;;;;;;;13.82;3.15;;;14.30;99.90;;;;;;4977438;28;48521;-81
2022/11/10 11:31:16;;;;;;;16.85;3.45;;;14.50;99.90;;;;;;5006177;28;39091;-80
2022/11/10 11:33:44;;;;;;;15.30;4.13;;;14.40;99.90;;;;;;4973787;28;39025;-79
2022/11/10 11:36:37;;;;;;;25.10;3.22;;;14.50;99.90;;;;;;4973343;28;38876;-80
2022/11/10 11:39:24;;;;;;;13.23;3.22;;;14.40;99.90;;;;;;4978995;28;35581;-79
2022/11/10 11:42:21;;;;;;;17.70;3.20;;;14.30;99.90;;;;;;4974309;28;39105;-81
2022/11/10 11:45:15;;;;;;;17.35;3.47;;;14.40;99.90;;;;;;4970595;28;47750;-81
2022/11/10 11:48:15;;;;;;;21.40;4.10;;;14.60;99.90;;;;;;4971816;28;47249;-81
2022/11/10 11:50:58;;;;;;;10.05;2.58;;;14.60;99.90;;;;;;4956263;28;47684;-81
2022/11/10 11:53:36;;;;;;;18.02;3.05;;;14.80;99.90;;;;;;4965160;28;39759;-81
2022/11/10 11:56:32;;;;;;;13.15;2.70;;;14.90;99.90;;;;;;4953909;28;37616;-81
2022/11/10 11:59:16;;;;;;;13.93;2.60;;;15.00;99.90;;;;;;4968178;28;46960;-78
2022/11/10 12:01:57;;;;;;;18.65;3.72;;;15.20;99.90;;;;;;4953932;28;47832;-79
2022/11/10 12:04:58;;;;;;;13.65;2.90;;;15.30;99.90;;;;;;4976043;28;39631;-81
2022/11/10 12:08:01;;;;;;;15.75;3.05;;;15.20;99.90;;;;;;4968745;28;39514;-79
2022/11/10 12:11:01;;;;;;;18.10;3.38;;;15.40;99.90;;;;;;4988365;28;38554;-78
2022/11/10 12:13:50;;;;;;;13.82;2.67;;;15.20;99.90;;;;;;4951828;28;36729;-78
2022/11/10 12:16:22;;;;;;;11.68;3.03;;;15.20;99.90;;;;;;4948601;28;38968;-78
2022/11/10 12:19:14;;;;;;;11.23;2.33;;;15.10;99.90;;;;;;4955781;28;39156;-79
2022/11/10 12:22:18;;;;;;;11.13;2.70;;;15.00;99.90;;;;;;4967396;28;47322;-77
2022/11/10 12:25:19;;;;;;;11.40;2.50;;;14.90;99.90;;;;;;4927590;28;47866;-79
2022/11/10 12:27:52;;;;;;;11.60;2.47;;;14.80;99.90;;;;;;4946434;28;47448;-78
2022/11/10 12:30:18;;;;;;;13.20;2.72;;;14.90;99.90;;;;;;4954014;28;38734;-78
2022/11/10 12:33:00;;;;;;;11.55;2.22;;;14.80;99.90;;;;;;4956051;28;37337;-79
2022/11/10 12:35:34;;;;;;;12.38;2.40;;;14.80;99.90;;;;;;4978731;28;36209;-79
2022/11/10 12:38:15;;;;;;;18.77;3.22;;;14.80;99.90;;;;;;4956365;28;39401;-79
2022/11/10 12:40:51;;;;;;;12.80;2.83;;;14.90;99.90;;;;;;4956935;28;49215;-79
2022/11/10 12:43:30;;;;;;;19.35;3.22;;;15.00;99.90;;;;;;4955781;28;39814;-79
2022/11/10 12:46:04;;;;;;;16.08;2.80;;;15.00;99.90;;;;;;4953894;28;37734;-79
2022/11/10 12:49:01;;;;;;;16.88;2.92;;;15.00;99.90;;;;;;4970721;28;37447;-79
2022/11/10 12:51:40;;;;;;;14.05;2.25;;;15.20;99.90;;;;;;4971960;28;38878;-78
2022/11/10 12:54:11;;;;;;;14.73;2.70;;;15.20;99.90;;;;;;4973613;28;38711;-77
2022/11/10 12:56:44;;;;;;;13.75;3.17;;;15.30;99.90;;;;;;4964394;28;37842;-79
2022/11/10 12:59:19;;;;;;;;;;;15.30;99.90;;;;;;4973669;28;36885;-78
2022/11/10 13:01:48;;;;;;;12.73;2.70;;;15.30;99.90;;;;;;4974733;28;39425;-78
2022/11/10 13:04:17;;;;;;;13.80;2.75;;;15.30;99.90;;;;;;4969013;28;38245;-79
2022/11/10 13:06:49;;;;;;;11.65;2.30;;;15.30;99.90;;;;;;4973364;28;36010;-77
2022/11/10 13:09:22;;;;;;;;;;;15.20;99.90;;;;;;4957016;28;38925;-78
2022/11/10 13:12:21;;;;;;;14.30;2.47;;;15.20;99.90;;;;;;4969195;28;38560;-79
2022/11/10 13:14:48;;;;;;;15.10;2.65;;;15.20;99.90;;;;;;4969155;28;48056;-78
2022/11/10 13:17:27;;;;;;;17.23;3.17;;;15.20;99.90;;;;;;4997698;28;37551;-79